Aviation Digital Data Service (ADDS)

Output produced by METARs form (0853 UTC 19 April 2019)
found at http://www.aviationweather.gov/metar/data/
 
METAR text: OEDR 190800Z 22010KT CAVOK 35/08 Q1007 NOSIG
Conditions at: OEDR (DHAHRAN INTL (MI, SA) observed 0800 UTC 19 April 2019
Temperature: 35.0°C (95°F)
Dewpoint: 8.0°C (46°F) [RH = 19%]
Pressure (altimeter): 29.73 inches Hg (1007.0 mb)
Winds: from the SW (220 degrees) at 12 MPH (10 knots; 5.1 m/s)
Visibility: 6 or more miles (10+ km)
Ceiling: ceiling and visibility are OK
Clouds: unknown
Weather: no significant weather observed at this time

METAR text: OEDR 190700Z 22008KT CAVOK 33/17 Q1008 NOSIG
Conditions at: OEDR (DHAHRAN INTL (MI, SA) observed 0700 UTC 19 April 2019
Temperature: 33.0°C (91°F)
Dewpoint: 17.0°C (63°F) [RH = 39%]
Pressure (altimeter): 29.76 inches Hg (1008.0 mb)
Winds: from the SW (220 degrees) at 9 MPH (8 knots; 4.1 m/s)
Visibility: 6 or more miles (10+ km)
Ceiling: ceiling and visibility are OK
Clouds: unknown
Weather: no significant weather observed at this time

METAR text: OEDR 190600Z 19007KT CAVOK 30/17 Q1008 NOSIG
Conditions at: OEDR (DHAHRAN INTL (MI, SA) observed 0600 UTC 19 April 2019
Temperature: 30.0°C (86°F)
Dewpoint: 17.0°C (63°F) [RH = 46%]
Pressure (altimeter): 29.76 inches Hg (1008.0 mb)
Winds: from the S (190 degrees) at 8 MPH (7 knots; 3.6 m/s)
Visibility: 6 or more miles (10+ km)
Ceiling: ceiling and visibility are OK
Clouds: unknown
Weather: no significant weather observed at this time

METAR text: OEDR 190500Z 18011KT CAVOK 29/17 Q1007 NOSIG
Conditions at: OEDR (DHAHRAN INTL (MI, SA) observed 0500 UTC 19 April 2019
Temperature: 29.0°C (84°F)
Dewpoint: 17.0°C (63°F) [RH = 48%]
Pressure (altimeter): 29.73 inches Hg (1007.0 mb)
Winds: from the S (180 degrees) at 13 MPH (11 knots; 5.7 m/s)
Visibility: 6 or more miles (10+ km)
Ceiling: ceiling and visibility are OK
Clouds: unknown
Weather: no significant weather observed at this time

METAR text: OEDR 190400Z 18007KT CAVOK 26/17 Q1007 NOSIG
Conditions at: OEDR (DHAHRAN INTL (MI, SA) observed 0400 UTC 19 April 2019
Temperature: 26.0°C (79°F)
Dewpoint: 17.0°C (63°F) [RH = 58%]
Pressure (altimeter): 29.73 inches Hg (1007.0 mb)
Winds: from the S (180 degrees) at 8 MPH (7 knots; 3.6 m/s)
Visibility: 6 or more miles (10+ km)
Ceiling: ceiling and visibility are OK
Clouds: unknown
Weather: no significant weather observed at this time

METAR text: OEDR 190300Z 17004KT CAVOK 23/14 Q1006 NOSIG
Conditions at: OEDR (DHAHRAN INTL (MI, SA) observed 0300 UTC 19 April 2019
Temperature: 23.0°C (73°F)
Dewpoint: 14.0°C (57°F) [RH = 57%]
Pressure (altimeter): 29.70 inches Hg (1006.0 mb)
Winds: from the S (170 degrees) at 5 MPH (4 knots; 2.1 m/s)
Visibility: 6 or more miles (10+ km)
Ceiling: ceiling and visibility are OK
Clouds: unknown
Weather: no significant weather observed at this time

METAR text: OEDR 190200Z 21005KT CAVOK 24/18 Q1006 NOSIG
Conditions at: OEDR (DHAHRAN INTL (MI, SA) observed 0200 UTC 19 April 2019
Temperature: 24.0°C (75°F)
Dewpoint: 18.0°C (64°F) [RH = 69%]
Pressure (altimeter): 29.70 inches Hg (1006.0 mb)
Winds: from the SSW (210 degrees) at 6 MPH (5 knots; 2.6 m/s)
Visibility: 6 or more miles (10+ km)
Ceiling: ceiling and visibility are OK
Clouds: unknown
Weather: no significant weather observed at this time

METAR text: OEDR 190100Z 18002KT CAVOK 24/17 Q1005 NOSIG
Conditions at: OEDR (DHAHRAN INTL (MI, SA) observed 0100 UTC 19 April 2019
Temperature: 24.0°C (75°F)
Dewpoint: 17.0°C (63°F) [RH = 65%]
Pressure (altimeter): 29.68 inches Hg (1005.0 mb)
Winds: from the S (180 degrees) at 2 MPH (2 knots; 1.0 m/s)
Visibility: 6 or more miles (10+ km)
Ceiling: ceiling and visibility are OK
Clouds: unknown
Weather: no significant weather observed at this time

METAR text: OEDR 190000Z 17004KT CAVOK 23/17 Q1005 NOSIG
Conditions at: OEDR (DHAHRAN INTL (MI, SA) observed 0000 UTC 19 April 2019
Temperature: 23.0°C (73°F)
Dewpoint: 17.0°C (63°F) [RH = 69%]
Pressure (altimeter): 29.68 inches Hg (1005.0 mb)
Winds: from the S (170 degrees) at 5 MPH (4 knots; 2.1 m/s)
Visibility: 6 or more miles (10+ km)
Ceiling: ceiling and visibility are OK
Clouds: unknown
Weather: no significant weather observed at this time

METAR text: OEDR 182300Z 13006KT CAVOK 25/17 Q1006 NOSIG
Conditions at: OEDR (DHAHRAN INTL (MI, SA) observed 2300 UTC 18 April 2019
Temperature: 25.0°C (77°F)
Dewpoint: 17.0°C (63°F) [RH = 61%]
Pressure (altimeter): 29.70 inches Hg (1006.0 mb)
Winds: from the SE (130 degrees) at 7 MPH (6 knots; 3.1 m/s)
Visibility: 6 or more miles (10+ km)
Ceiling: ceiling and visibility are OK
Clouds: unknown
Weather: no significant weather observed at this time

METAR text: OEDR 182200Z 14004KT 9999 FEW040 SCT100 26/16 Q1006 NOSIG
Conditions at: OEDR (DHAHRAN INTL (MI, SA) observed 2200 UTC 18 April 2019
Temperature: 26.0°C (79°F)
Dewpoint: 16.0°C (61°F) [RH = 54%]
Pressure (altimeter): 29.70 inches Hg (1006.0 mb)
Winds: from the SE (140 degrees) at 5 MPH (4 knots; 2.1 m/s)
Visibility: 6 or more miles (10+ km)
Ceiling: at least 12,000 feet AGL
Clouds: few clouds at 4000 feet AGL
scattered clouds at 10000 feet AGL
Weather: no significant weather observed at this time

METAR text: OEDR 182100Z 14005KT 9999 FEW040 SCT100 26/16 Q1007 NOSIG
Conditions at: OEDR (DHAHRAN INTL (MI, SA) observed 2100 UTC 18 April 2019
Temperature: 26.0°C (79°F)
Dewpoint: 16.0°C (61°F) [RH = 54%]
Pressure (altimeter): 29.73 inches Hg (1007.0 mb)
Winds: from the SE (140 degrees) at 6 MPH (5 knots; 2.6 m/s)
Visibility: 6 or more miles (10+ km)
Ceiling: at least 12,000 feet AGL
Clouds: few clouds at 4000 feet AGL
scattered clouds at 10000 feet AGL
Weather: no significant weather observed at this time

METAR text: OEDR 182000Z 15004KT 9999 FEW040 SCT100 28/15 Q1008 NOSIG
Conditions at: OEDR (DHAHRAN INTL (MI, SA) observed 2000 UTC 18 April 2019
Temperature: 28.0°C (82°F)
Dewpoint: 15.0°C (59°F) [RH = 45%]
Pressure (altimeter): 29.76 inches Hg (1008.0 mb)
Winds: from the SSE (150 degrees) at 5 MPH (4 knots; 2.1 m/s)
Visibility: 6 or more miles (10+ km)
Ceiling: at least 12,000 feet AGL
Clouds: few clouds at 4000 feet AGL
scattered clouds at 10000 feet AGL
Weather: no significant weather observed at this time

METAR text: OEDR 181900Z VRB03KT 9999 SCT040 SCT100 29/15 Q1008 NOSIG
Conditions at: OEDR (DHAHRAN INTL (MI, SA) observed 1900 UTC 18 April 2019
Temperature: 29.0°C (84°F)
Dewpoint: 15.0°C (59°F) [RH = 43%]
Pressure (altimeter): 29.76 inches Hg (1008.0 mb)
Winds: variable direction winds at 3 MPH (3 knots; 1.5 m/s)
Visibility: 6 or more miles (10+ km)
Ceiling: at least 12,000 feet AGL
Clouds: scattered clouds at 4000 feet AGL
scattered clouds at 10000 feet AGL
Weather: no significant weather observed at this time

METAR text: OEDR 181800Z 14012KT CAVOK 29/13 Q1007 NOSIG
Conditions at: OEDR (DHAHRAN INTL (MI, SA) observed 1800 UTC 18 April 2019
Temperature: 29.0°C (84°F)
Dewpoint: 13.0°C (55°F) [RH = 37%]
Pressure (altimeter): 29.73 inches Hg (1007.0 mb)
Winds: from the SE (140 degrees) at 14 MPH (12 knots; 6.2 m/s)
Visibility: 6 or more miles (10+ km)
Ceiling: ceiling and visibility are OK
Clouds: unknown
Weather: no significant weather observed at this time

METAR text: OEDR 181700Z 13011KT CAVOK 30/15 Q1006 NOSIG
Conditions at: OEDR (DHAHRAN INTL (MI, SA) observed 1700 UTC 18 April 2019
Temperature: 30.0°C (86°F)
Dewpoint: 15.0°C (59°F) [RH = 40%]
Pressure (altimeter): 29.70 inches Hg (1006.0 mb)
Winds: from the SE (130 degrees) at 13 MPH (11 knots; 5.7 m/s)
Visibility: 6 or more miles (10+ km)
Ceiling: ceiling and visibility are OK
Clouds: unknown
Weather: no significant weather observed at this time

METAR text: OEDR 181600Z 12010KT 9999 FEW040 SCT100 30/17 Q1006 NOSIG
Conditions at: OEDR (DHAHRAN INTL (MI, SA) observed 1600 UTC 18 April 2019
Temperature: 30.0°C (86°F)
Dewpoint: 17.0°C (63°F) [RH = 46%]
Pressure (altimeter): 29.70 inches Hg (1006.0 mb)
Winds: from the ESE (120 degrees) at 12 MPH (10 knots; 5.1 m/s)
Visibility: 6 or more miles (10+ km)
Ceiling: at least 12,000 feet AGL
Clouds: few clouds at 4000 feet AGL
scattered clouds at 10000 feet AGL
Weather: no significant weather observed at this time

METAR text: OEDR 181500Z 11012KT CAVOK 31/17 Q1005 NOSIG
Conditions at: OEDR (DHAHRAN INTL (MI, SA) observed 1500 UTC 18 April 2019
Temperature: 31.0°C (88°F)
Dewpoint: 17.0°C (63°F) [RH = 43%]
Pressure (altimeter): 29.68 inches Hg (1005.0 mb)
Winds: from the ESE (110 degrees) at 14 MPH (12 knots; 6.2 m/s)
Visibility: 6 or more miles (10+ km)
Ceiling: ceiling and visibility are OK
Clouds: unknown
Weather: no significant weather observed at this time

METAR text: OEDR 181400Z 10008KT CAVOK 32/19 Q1005 NOSIG
Conditions at: OEDR (DHAHRAN INTL (MI, SA) observed 1400 UTC 18 April 2019
Temperature: 32.0°C (90°F)
Dewpoint: 19.0°C (66°F) [RH = 46%]
Pressure (altimeter): 29.68 inches Hg (1005.0 mb)
Winds: from the E (100 degrees) at 9 MPH (8 knots; 4.1 m/s)
Visibility: 6 or more miles (10+ km)
Ceiling: ceiling and visibility are OK
Clouds: unknown
Weather: no significant weather observed at this time

METAR text: OEDR 181300Z 14012KT CAVOK 33/16 Q1005 NOSIG
Conditions at: OEDR (DHAHRAN INTL (MI, SA) observed 1300 UTC 18 April 2019
Temperature: 33.0°C (91°F)
Dewpoint: 16.0°C (61°F) [RH = 36%]
Pressure (altimeter): 29.68 inches Hg (1005.0 mb)
Winds: from the SE (140 degrees) at 14 MPH (12 knots; 6.2 m/s)
Visibility: 6 or more miles (10+ km)
Ceiling: ceiling and visibility are OK
Clouds: unknown
Weather: no significant weather observed at this time

METAR text: OEDR 181200Z 14014KT 9999 FEW040 SCT100 37/03 Q1006 NOSIG
Conditions at: OEDR (DHAHRAN INTL (MI, SA) observed 1200 UTC 18 April 2019
Temperature: 37.0°C (99°F)
Dewpoint: 3.0°C (37°F) [RH = 12%]
Pressure (altimeter): 29.70 inches Hg (1006.0 mb)
Winds: from the SE (140 degrees) at 16 MPH (14 knots; 7.2 m/s)
Visibility: 6 or more miles (10+ km)
Ceiling: at least 12,000 feet AGL
Clouds: few clouds at 4000 feet AGL
scattered clouds at 10000 feet AGL
Weather: no significant weather observed at this time

METAR text: OEDR 181100Z 13010KT 9999 FEW040 SCT100 36/04 Q1007 NOSIG
Conditions at: OEDR (DHAHRAN INTL (MI, SA) observed 1100 UTC 18 April 2019
Temperature: 36.0°C (97°F)
Dewpoint: 4.0°C (39°F) [RH = 14%]
Pressure (altimeter): 29.73 inches Hg (1007.0 mb)
Winds: from the SE (130 degrees) at 12 MPH (10 knots; 5.1 m/s)
Visibility: 6 or more miles (10+ km)
Ceiling: at least 12,000 feet AGL
Clouds: few clouds at 4000 feet AGL
scattered clouds at 10000 feet AGL
Weather: no significant weather observed at this time

METAR text: OEDR 181000Z 13011KT 9999 FEW040 SCT100 35/05 Q1007 NOSIG
Conditions at: OEDR (DHAHRAN INTL (MI, SA) observed 1000 UTC 18 April 2019
Temperature: 35.0°C (95°F)
Dewpoint: 5.0°C (41°F) [RH = 16%]
Pressure (altimeter): 29.73 inches Hg (1007.0 mb)
Winds: from the SE (130 degrees) at 13 MPH (11 knots; 5.7 m/s)
Visibility: 6 or more miles (10+ km)
Ceiling: at least 12,000 feet AGL
Clouds: few clouds at 4000 feet AGL
scattered clouds at 10000 feet AGL
Weather: no significant weather observed at this time

METAR text: OEDR 180900Z 16011KT CAVOK 35/08 Q1008 NOSIG
Conditions at: OEDR (DHAHRAN INTL (MI, SA) observed 0900 UTC 18 April 2019
Temperature: 35.0°C (95°F)
Dewpoint: 8.0°C (46°F) [RH = 19%]
Pressure (altimeter): 29.76 inches Hg (1008.0 mb)
Winds: from the SSE (160 degrees) at 13 MPH (11 knots; 5.7 m/s)
Visibility: 6 or more miles (10+ km)
Ceiling: ceiling and visibility are OK
Clouds: unknown
Weather: no significant weather observed at this time

METAR text: OEDR 180800Z 15011KT 8000 NSC 34/07 Q1008 NOSIG
Conditions at: OEDR (DHAHRAN INTL (MI, SA) observed 0800 UTC 18 April 2019
Temperature: 34.0°C (93°F)
Dewpoint: 7.0°C (45°F) [RH = 19%]
Pressure (altimeter): 29.76 inches Hg (1008.0 mb)
Winds: from the SSE (150 degrees) at 13 MPH (11 knots; 5.7 m/s)
Visibility: 5 miles ( 8 km)
Ceiling: at least 12,000 feet AGL
Clouds: sky clear below 12,000 feet AGL
Weather: no significant weather observed at this time

METAR text: OEDR 180700Z 13009KT 8000 NSC 32/08 Q1009 NOSIG
Conditions at: OEDR (DHAHRAN INTL (MI, SA) observed 0700 UTC 18 April 2019
Temperature: 32.0°C (90°F)
Dewpoint: 8.0°C (46°F) [RH = 23%]
Pressure (altimeter): 29.79 inches Hg (1009.0 mb)
Winds: from the SE (130 degrees) at 10 MPH (9 knots; 4.6 m/s)
Visibility: 5 miles ( 8 km)
Ceiling: at least 12,000 feet AGL
Clouds: sky clear below 12,000 feet AGL
Weather: no significant weather observed at this time

METAR text: OEDR 180600Z 11009KT 7000 FEW040 SCT080 30/10 Q1009 NOSIG
Conditions at: OEDR (DHAHRAN INTL (MI, SA) observed 0600 UTC 18 April 2019
Temperature: 30.0°C (86°F)
Dewpoint: 10.0°C (50°F) [RH = 29%]
Pressure (altimeter): 29.79 inches Hg (1009.0 mb)
Winds: from the ESE (110 degrees) at 10 MPH (9 knots; 4.6 m/s)
Visibility: 4 miles ( 7 km)
Ceiling: at least 12,000 feet AGL
Clouds: few clouds at 4000 feet AGL
scattered clouds at 8000 feet AGL
Weather: no significant weather observed at this time

METAR text: OEDR 180500Z VRB02KT 7000 FEW040 SCT100 29/09 Q1010 NOSIG
Conditions at: OEDR (DHAHRAN INTL (MI, SA) observed 0500 UTC 18 April 2019
Temperature: 29.0°C (84°F)
Dewpoint: 9.0°C (48°F) [RH = 29%]
Pressure (altimeter): 29.82 inches Hg (1010.0 mb)
Winds: variable direction winds at 2 MPH (2 knots; 1.0 m/s)
Visibility: 4 miles ( 7 km)
Ceiling: at least 12,000 feet AGL
Clouds: few clouds at 4000 feet AGL
scattered clouds at 10000 feet AGL
Weather: no significant weather observed at this time

METAR text: OEDR 180400Z 02005KT 8000 NSC 27/11 Q1009 NOSIG
Conditions at: OEDR (DHAHRAN INTL (MI, SA) observed 0400 UTC 18 April 2019
Temperature: 27.0°C (81°F)
Dewpoint: 11.0°C (52°F) [RH = 37%]
Pressure (altimeter): 29.79 inches Hg (1009.0 mb)
Winds: from the NNE (20 degrees) at 6 MPH (5 knots; 2.6 m/s)
Visibility: 5 miles ( 8 km)
Ceiling: at least 12,000 feet AGL
Clouds: sky clear below 12,000 feet AGL
Weather: no significant weather observed at this time

METAR text: OEDR 180300Z VRB01KT 8000 NSC 24/12 Q1009 NOSIG
Conditions at: OEDR (DHAHRAN INTL (MI, SA) observed 0300 UTC 18 April 2019
Temperature: 24.0°C (75°F)
Dewpoint: 12.0°C (54°F) [RH = 47%]
Pressure (altimeter): 29.79 inches Hg (1009.0 mb)
Winds: variable direction winds at 1 MPH (1 knots; 0.5 m/s)
Visibility: 5 miles ( 8 km)
Ceiling: at least 12,000 feet AGL
Clouds: sky clear below 12,000 feet AGL
Weather: no significant weather observed at this time

METAR text: OEDR 180200Z 00000KT CAVOK 23/10 Q1009 NOSIG
Conditions at: OEDR (DHAHRAN INTL (MI, SA) observed 0200 UTC 18 April 2019
Temperature: 23.0°C (73°F)
Dewpoint: 10.0°C (50°F) [RH = 44%]
Pressure (altimeter): 29.79 inches Hg (1009.0 mb)
Winds: calm
Visibility: 6 or more miles (10+ km)
Ceiling: ceiling and visibility are OK
Clouds: unknown
Weather: no significant weather observed at this time

METAR text: OEDR 180100Z 28005KT CAVOK 23/08 Q1008 NOSIG
Conditions at: OEDR (DHAHRAN INTL (MI, SA) observed 0100 UTC 18 April 2019
Temperature: 23.0°C (73°F)
Dewpoint: 8.0°C (46°F) [RH = 38%]
Pressure (altimeter): 29.76 inches Hg (1008.0 mb)
Winds: from the W (280 degrees) at 6 MPH (5 knots; 2.6 m/s)
Visibility: 6 or more miles (10+ km)
Ceiling: ceiling and visibility are OK
Clouds: unknown
Weather: no significant weather observed at this time

METAR text: OEDR 180000Z 24006KT CAVOK 25/13 Q1007 NOSIG
Conditions at: OEDR (DHAHRAN INTL (MI, SA) observed 0000 UTC 18 April 2019
Temperature: 25.0°C (77°F)
Dewpoint: 13.0°C (55°F) [RH = 47%]
Pressure (altimeter): 29.73 inches Hg (1007.0 mb)
Winds: from the WSW (240 degrees) at 7 MPH (6 knots; 3.1 m/s)
Visibility: 6 or more miles (10+ km)
Ceiling: ceiling and visibility are OK
Clouds: unknown
Weather: no significant weather observed at this time

METAR text: OEDR 172300Z 21007KT CAVOK 26/15 Q1007 NOSIG
Conditions at: OEDR (DHAHRAN INTL (MI, SA) observed 2300 UTC 17 April 2019
Temperature: 26.0°C (79°F)
Dewpoint: 15.0°C (59°F) [RH = 51%]
Pressure (altimeter): 29.73 inches Hg (1007.0 mb)
Winds: from the SSW (210 degrees) at 8 MPH (7 knots; 3.6 m/s)
Visibility: 6 or more miles (10+ km)
Ceiling: ceiling and visibility are OK
Clouds: unknown
Weather: no significant weather observed at this time

METAR text: OEDR 172200Z 16010KT CAVOK 27/13 Q1007 NOSIG
Conditions at: OEDR (DHAHRAN INTL (MI, SA) observed 2200 UTC 17 April 2019
Temperature: 27.0°C (81°F)
Dewpoint: 13.0°C (55°F) [RH = 42%]
Pressure (altimeter): 29.73 inches Hg (1007.0 mb)
Winds: from the SSE (160 degrees) at 12 MPH (10 knots; 5.1 m/s)
Visibility: 6 or more miles (10+ km)
Ceiling: ceiling and visibility are OK
Clouds: unknown
Weather: no significant weather observed at this time

METAR text: OEDR 172100Z 15015KT CAVOK 28/13 Q1007 NOSIG
Conditions at: OEDR (DHAHRAN INTL (MI, SA) observed 2100 UTC 17 April 2019
Temperature: 28.0°C (82°F)
Dewpoint: 13.0°C (55°F) [RH = 40%]
Pressure (altimeter): 29.73 inches Hg (1007.0 mb)
Winds: from the SSE (150 degrees) at 17 MPH (15 knots; 7.7 m/s)
Visibility: 6 or more miles (10+ km)
Ceiling: ceiling and visibility are OK
Clouds: unknown
Weather: no significant weather observed at this time

Forecast for: OEDR (DHAHRAN INTL (MI, SA)
Text: TAF OEDR 190800Z 1912/2018 07015KT CAVOK
Forecast period: 1200 to 1800 UTC 19 April 2019
Forecast type: FROM: standard forecast or significant change
Winds: from the ENE (70 degrees) at 17 MPH (15 knots; 7.7 m/s)
Visibility: 6 or more miles 10+ km)
Ceiling: unknown
Clouds: missing
Weather: NSW  (no significant weather)
Text: BECMG 1918/1920 15010KT
Forecast period: 1800 UTC 19 April 2019 to 1800 UTC 20 April 2019
Forecast type: BECOMING: Conditions expected to become as follows by 2000 UTC 19 April 2019
Winds: from the SSE (150 degrees) at 12 MPH (10 knots; 5.1 m/s)
Visibility: 6 or more miles 10+ km)
Ceiling: unknown
Clouds: missing
Weather: NSW  (no significant weather)